createdAt,value
2023-08-07T00:00:14.641Z,100844.59
2023-08-07T00:02:40.986Z,100847.22
2023-08-07T00:05:07.375Z,100846.19
2023-08-07T00:07:33.703Z,100839.94
2023-08-07T00:09:59.979Z,100840.78
2023-08-07T00:12:26.318Z,100847.00
2023-08-07T00:14:52.698Z,100846.19
2023-08-07T00:17:18.998Z,100846.25
2023-08-07T00:19:45.348Z,100844.78
2023-08-07T00:22:11.673Z,100846.72
2023-08-07T00:24:37.944Z,100845.09
2023-08-07T00:27:04.276Z,100836.53
2023-08-07T00:29:30.570Z,100840.22
2023-08-07T00:31:56.791Z,100840.53
2023-08-07T00:34:23.058Z,100836.00
2023-08-07T00:36:49.319Z,100828.19
2023-08-07T00:39:15.606Z,100835.06
2023-08-07T00:41:41.877Z,100832.19
2023-08-07T00:44:08.175Z,100831.44
2023-08-07T00:46:34.488Z,100834.63
2023-08-07T00:49:00.828Z,100834.91
2023-08-07T00:51:27.125Z,100836.69
2023-08-07T00:53:53.397Z,100835.94
2023-08-07T00:56:19.780Z,100829.19
2023-08-07T00:58:46.120Z,100828.66
2023-08-07T01:01:12.406Z,100828.75
2023-08-07T01:03:38.736Z,100832.53
2023-08-07T01:06:05.026Z,100839.97
2023-08-07T01:08:31.378Z,100831.31
2023-08-07T01:10:57.673Z,100838.78
2023-08-07T01:13:23.958Z,100833.59
2023-08-07T01:15:50.232Z,100830.22
2023-08-07T01:18:16.689Z,100836.34
2023-08-07T01:20:43.060Z,100832.41
2023-08-07T01:23:09.308Z,100838.81
2023-08-07T01:25:35.537Z,100847.06
2023-08-07T01:28:01.805Z,100855.25
2023-08-07T01:30:28.103Z,100853.28
2023-08-07T01:32:54.431Z,100864.63
2023-08-07T01:35:20.781Z,100862.19
2023-08-07T01:37:47.005Z,100868.66
2023-08-07T01:40:13.251Z,100869.91
2023-08-07T01:42:39.552Z,100872.06
2023-08-07T01:45:05.834Z,100863.84
2023-08-07T01:47:32.241Z,100865.19
2023-08-07T01:49:58.557Z,100862.44
2023-08-07T01:52:24.854Z,100858.03
2023-08-07T01:54:51.151Z,100863.09
2023-08-07T01:57:17.403Z,100864.25
2023-08-07T01:59:43.676Z,100865.97
2023-08-07T02:02:10.243Z,100866.72
2023-08-07T02:04:36.576Z,100859.56
2023-08-07T02:07:02.912Z,100858.44
2023-08-07T02:09:29.224Z,100859.06
2023-08-07T02:11:55.529Z,100856.16
2023-08-07T02:14:21.850Z,100850.94
2023-08-07T02:16:48.105Z,100852.78
2023-08-07T02:19:14.435Z,100855.47
2023-08-07T02:21:40.758Z,100850.31
2023-08-07T02:24:07.057Z,100857.84
2023-08-07T02:26:33.363Z,100859.94
2023-08-07T02:28:59.729Z,100860.75
2023-08-07T02:31:26.104Z,100858.75
2023-08-07T02:33:52.431Z,100857.53
2023-08-07T02:36:18.777Z,100867.13
2023-08-07T02:38:45.020Z,100867.09
2023-08-07T02:41:11.298Z,100871.19
2023-08-07T02:43:37.569Z,100886.00
2023-08-07T02:46:03.909Z,100896.22
2023-08-07T02:48:30.216Z,100890.19
2023-08-07T02:50:56.542Z,100880.84
2023-08-07T02:53:22.829Z,100880.09
2023-08-07T02:55:49.173Z,100879.88
2023-08-07T02:58:15.479Z,100888.75
2023-08-07T03:00:41.706Z,100888.06
2023-08-07T03:03:08.034Z,100886.38
2023-08-07T03:05:34.360Z,100884.75
2023-08-07T03:08:00.739Z,100890.19
2023-08-07T03:10:27.137Z,100882.31
2023-08-07T03:12:53.462Z,100893.69
2023-08-07T03:15:19.834Z,100888.91
2023-08-07T03:17:46.188Z,100886.13
2023-08-07T03:20:12.559Z,100890.44
2023-08-07T03:22:38.902Z,100886.97
2023-08-07T03:25:05.242Z,100894.88
2023-08-07T03:27:31.604Z,100895.69
2023-08-07T03:29:57.875Z,100896.13
2023-08-07T03:32:24.218Z,100898.00
2023-08-07T03:34:50.533Z,100905.91
2023-08-07T03:37:16.827Z,100907.00
2023-08-07T03:39:43.168Z,100898.97
2023-08-07T03:42:09.729Z,100893.69
2023-08-07T03:44:35.997Z,100892.84
2023-08-07T03:47:02.289Z,100897.09
2023-08-07T03:49:28.591Z,100889.34
2023-08-07T03:51:54.872Z,100892.13
2023-08-07T03:54:21.121Z,100891.53
2023-08-07T03:56:47.368Z,100891.81
2023-08-07T03:59:13.678Z,100888.44
2023-08-07T04:01:39.951Z,100890.28
2023-08-07T04:04:06.276Z,100889.53
2023-08-07T04:06:32.699Z,100889.88
2023-08-07T04:08:59.036Z,100893.63
2023-08-07T04:11:25.316Z,100894.88
2023-08-07T04:13:51.584Z,100905.75
2023-08-07T04:16:17.893Z,100901.00
2023-08-07T04:18:44.344Z,100910.25
2023-08-07T04:21:10.650Z,100907.84
2023-08-07T04:23:36.922Z,100902.84
2023-08-07T04:26:03.238Z,100896.84
2023-08-07T04:28:29.534Z,100903.97
2023-08-07T04:30:55.821Z,100899.63
2023-08-07T04:33:22.179Z,100896.13
2023-08-07T04:35:48.430Z,100904.78
2023-08-07T04:38:14.801Z,100908.13
2023-08-07T04:40:41.108Z,100903.69
2023-08-07T04:43:07.399Z,100905.50
2023-08-07T04:45:34.572Z,100905.41
2023-08-07T04:48:01.708Z,100906.41
2023-08-07T04:50:28.051Z,100908.03
2023-08-07T04:52:54.355Z,100913.72
2023-08-07T04:55:20.639Z,100919.56
2023-08-07T04:57:46.900Z,100919.34
2023-08-07T05:00:13.126Z,100921.88
2023-08-07T05:02:39.455Z,100928.94
2023-08-07T05:05:05.800Z,100928.00
2023-08-07T05:07:32.093Z,100935.03
2023-08-07T05:09:58.377Z,100932.34
2023-08-07T05:12:24.733Z,100932.91
2023-08-07T05:14:51.038Z,100935.38
2023-08-07T05:17:17.336Z,100940.06
2023-08-07T05:19:44.871Z,100945.41
2023-08-07T05:22:11.147Z,100947.69
2023-08-07T05:24:37.405Z,100948.56
2023-08-07T05:27:03.624Z,100946.25
2023-08-07T05:29:29.996Z,100949.69
2023-08-07T05:31:56.479Z,100954.16
2023-08-07T05:34:23.294Z,100952.69
2023-08-07T05:36:49.546Z,100958.84
2023-08-07T05:39:15.791Z,100966.13
2023-08-07T05:41:42.082Z,100968.91
2023-08-07T05:44:08.413Z,100964.31
2023-08-07T05:46:34.699Z,100973.66
2023-08-07T05:49:01.001Z,100971.28
2023-08-07T05:51:27.317Z,100975.28
2023-08-07T05:53:53.622Z,100976.41
2023-08-07T05:56:19.965Z,100977.59
2023-08-07T05:58:46.214Z,100983.25
2023-08-07T06:01:12.592Z,100987.25
2023-08-07T06:03:39.003Z,100987.41
2023-08-07T06:06:05.357Z,100993.72
2023-08-07T06:08:31.689Z,101003.34
2023-08-07T06:10:58.003Z,100999.72
2023-08-07T06:13:35.368Z,101005.72
2023-08-07T06:16:02.917Z,101014.22
2023-08-07T06:18:29.280Z,101022.09
2023-08-07T06:20:55.865Z,101036.84
2023-08-07T06:23:22.317Z,101052.31
2023-08-07T06:25:48.572Z,101062.19
2023-08-07T06:28:14.937Z,101069.44
2023-08-07T06:30:41.251Z,101083.00
2023-08-07T06:33:07.578Z,101077.84
2023-08-07T06:35:34.126Z,101089.50
2023-08-07T06:38:00.461Z,101094.28
2023-08-07T06:40:26.816Z,101095.56
2023-08-07T06:42:53.122Z,101097.06
2023-08-07T06:45:19.451Z,101102.53
2023-08-07T06:47:45.993Z,101102.78
2023-08-07T06:50:12.393Z,101110.41
2023-08-07T06:52:38.745Z,101105.94
2023-08-07T06:55:05.064Z,101115.91
2023-08-07T06:57:31.399Z,101109.56
2023-08-07T06:59:57.817Z,101109.16
2023-08-07T07:02:24.112Z,101109.69
2023-08-07T07:04:50.401Z,101102.06
2023-08-07T07:07:16.676Z,101098.47
2023-08-07T07:09:42.963Z,101104.09
2023-08-07T07:12:09.198Z,101103.34
2023-08-07T07:14:35.451Z,101090.50
2023-08-07T07:17:01.689Z,101092.06
2023-08-07T07:19:28.020Z,101091.97
2023-08-07T07:21:54.574Z,101100.88
2023-08-07T07:24:21.055Z,101090.97
2023-08-07T07:26:47.344Z,101084.03
2023-08-07T07:29:13.672Z,101081.66
2023-08-07T07:31:39.977Z,101069.09
2023-08-07T07:34:06.332Z,101057.81
2023-08-07T07:36:32.621Z,101052.03
2023-08-07T07:38:58.945Z,101048.84
2023-08-07T07:41:25.427Z,101048.38
2023-08-07T07:43:51.744Z,101048.13
2023-08-07T07:46:18.128Z,101045.28
2023-08-07T07:48:44.452Z,101042.97
2023-08-07T07:51:10.753Z,101042.41
2023-08-07T07:53:37.079Z,101039.53
2023-08-07T07:56:03.414Z,101046.53
2023-08-07T07:58:29.745Z,101052.47
2023-08-07T08:00:56.017Z,101055.38
2023-08-07T08:03:22.435Z,101057.34
2023-08-07T08:05:48.743Z,101063.16
2023-08-07T08:08:15.113Z,101062.44
2023-08-07T08:10:41.353Z,101067.38
2023-08-07T08:13:07.720Z,101052.78
2023-08-07T08:15:34.149Z,101057.22
2023-08-07T08:18:00.505Z,101060.47
2023-08-07T08:20:26.881Z,101064.69
2023-08-07T08:22:53.151Z,101069.56
2023-08-07T08:25:19.449Z,101080.53
2023-08-07T08:27:45.820Z,101072.25
2023-08-07T08:30:12.179Z,101062.81
2023-08-07T08:32:38.462Z,101065.94
2023-08-07T08:35:04.802Z,101066.63
2023-08-07T08:37:31.169Z,101068.28
2023-08-07T08:39:57.433Z,101068.38
2023-08-07T08:42:23.730Z,101074.28
2023-08-07T08:44:50.055Z,101071.25
2023-08-07T08:47:16.361Z,101078.25
2023-08-07T08:49:42.664Z,101071.44
2023-08-07T08:52:09.016Z,101081.09
2023-08-07T08:54:35.301Z,101081.19
2023-08-07T08:57:01.618Z,101088.06
2023-08-07T08:59:27.949Z,101090.63
2023-08-07T09:01:54.206Z,101090.78
2023-08-07T09:04:20.455Z,101099.88
2023-08-07T09:06:46.755Z,101102.94
2023-08-07T09:09:13.094Z,101116.22
2023-08-07T09:11:39.426Z,101108.59
2023-08-07T09:14:05.743Z,101107.59
2023-08-07T09:16:32.073Z,101119.75
2023-08-07T09:18:58.405Z,101129.09
2023-08-07T09:21:24.722Z,101137.81
2023-08-07T09:23:50.960Z,101138.75
2023-08-07T09:26:17.337Z,101141.69
2023-08-07T09:28:43.729Z,101152.09
2023-08-07T09:31:10.149Z,101154.91
2023-08-07T09:33:36.537Z,101154.19
2023-08-07T09:36:02.856Z,101159.34
2023-08-07T09:38:29.195Z,101157.16
2023-08-07T09:40:55.522Z,101166.03
2023-08-07T09:43:21.915Z,101155.34
2023-08-07T09:45:48.447Z,101162.09
2023-08-07T09:48:15.026Z,101165.28
2023-08-07T09:50:41.349Z,101173.56
2023-08-07T09:53:07.727Z,101162.16
2023-08-07T09:55:34.054Z,101157.22
2023-08-07T09:58:00.500Z,101163.41
2023-08-07T10:00:26.895Z,101161.75
2023-08-07T10:02:53.376Z,101164.25
2023-08-07T10:05:19.912Z,101162.72
2023-08-07T10:07:46.242Z,101161.19
2023-08-07T10:10:12.662Z,101158.22
2023-08-07T10:12:39.003Z,101165.25
2023-08-07T10:15:05.988Z,101160.44
2023-08-07T10:17:33.081Z,101145.44
2023-08-07T10:19:59.743Z,101148.00
2023-08-07T10:22:26.507Z,101142.56
2023-08-07T10:24:53.204Z,101146.09
2023-08-07T10:27:19.508Z,101144.44
2023-08-07T10:29:45.798Z,101140.28
2023-08-07T10:32:15.755Z,101137.84
2023-08-07T10:34:42.532Z,101137.50
2023-08-07T10:37:09.161Z,101135.72
2023-08-07T10:39:35.599Z,101144.31
2023-08-07T10:42:01.922Z,101137.09
2023-08-07T10:44:28.329Z,101140.63
2023-08-07T10:46:55.268Z,101138.22
2023-08-07T10:49:22.057Z,101138.09
2023-08-07T10:51:48.470Z,101141.97
2023-08-07T10:54:14.804Z,101151.81
2023-08-07T10:56:41.171Z,101138.56
2023-08-07T10:59:07.424Z,101140.28
2023-08-07T11:01:34.380Z,101146.56
2023-08-07T11:04:00.844Z,101132.78
2023-08-07T11:06:28.133Z,101143.41
2023-08-07T11:08:54.462Z,101136.59
2023-08-07T11:11:20.841Z,101132.28
2023-08-07T11:13:47.293Z,101143.84
2023-08-07T11:16:13.646Z,101133.84
2023-08-07T11:18:39.928Z,101137.59
2023-08-07T11:21:06.271Z,101139.13
2023-08-07T11:23:32.534Z,101134.44
2023-08-07T11:25:58.886Z,101140.66
2023-08-07T11:28:25.251Z,101132.09
2023-08-07T11:30:51.558Z,101134.19
2023-08-07T11:33:17.913Z,101126.94
2023-08-07T11:35:44.216Z,101125.66
2023-08-07T11:38:10.550Z,101143.34
2023-08-07T11:40:36.905Z,101133.63
2023-08-07T11:43:03.265Z,101152.00
2023-08-07T11:45:30.080Z,101140.31
2023-08-07T11:47:57.510Z,101131.19
2023-08-07T11:50:25.406Z,101134.44
2023-08-07T11:52:52.096Z,101133.56
2023-08-07T11:55:18.628Z,101138.13
2023-08-07T11:57:44.898Z,101132.94
2023-08-07T12:00:11.148Z,101140.56
2023-08-07T12:02:38.035Z,101130.63
2023-08-07T12:05:04.728Z,101131.78
2023-08-07T12:07:33.663Z,101137.34
2023-08-07T12:10:01.042Z,101138.31
2023-08-07T12:12:27.937Z,101139.00
2023-08-07T12:14:54.895Z,101144.53
2023-08-07T12:17:21.506Z,101132.38
2023-08-07T12:19:48.567Z,101141.38
2023-08-07T12:22:15.264Z,101136.50
2023-08-07T12:24:42.012Z,101145.56
2023-08-07T12:27:08.333Z,101154.53
2023-08-07T12:29:35.198Z,101143.75
2023-08-07T12:32:02.155Z,101142.97
2023-08-07T12:36:59.764Z,101148.16
2023-08-07T12:40:35.528Z,101151.00
2023-08-07T12:44:46.146Z,101142.19
2023-08-07T12:47:13.616Z,101147.75
2023-08-07T12:49:40.410Z,101146.75
2023-08-07T12:52:07.254Z,101143.88
2023-08-07T12:54:33.726Z,101140.03
2023-08-07T12:57:00.092Z,101136.31
2023-08-07T12:59:26.398Z,101145.03
2023-08-07T13:01:52.717Z,101151.78
2023-08-07T13:04:19.056Z,101144.06
2023-08-07T13:06:45.344Z,101143.91
2023-08-07T13:09:11.958Z,101137.50
2023-08-07T13:11:38.208Z,101151.13
2023-08-07T13:14:04.491Z,101145.41
2023-08-07T13:16:30.803Z,101151.13
2023-08-07T13:18:57.105Z,101143.03
2023-08-07T13:21:23.408Z,101150.72
2023-08-07T13:23:49.755Z,101143.38
2023-08-07T13:26:16.028Z,101150.78
2023-08-07T13:28:42.310Z,101154.78
2023-08-07T13:31:08.821Z,101148.69
2023-08-07T13:33:35.221Z,101148.59
2023-08-07T13:36:01.504Z,101149.09
2023-08-07T13:38:27.791Z,101148.31
2023-08-07T13:40:54.266Z,101153.06
2023-08-07T13:43:20.592Z,101146.84
2023-08-07T13:45:46.894Z,101144.16
2023-08-07T13:48:13.254Z,101151.06
2023-08-07T13:50:39.584Z,101152.81
2023-08-07T13:53:14.545Z,101143.22
2023-08-07T13:55:42.140Z,101152.19
2023-08-07T13:58:09.584Z,101146.28
2023-08-07T14:00:40.101Z,101155.75
2023-08-07T14:03:06.530Z,101151.53
2023-08-07T14:05:32.853Z,101164.69
2023-08-07T14:07:59.187Z,101171.25
2023-08-07T14:10:25.495Z,101165.22
2023-08-07T14:12:52.101Z,101164.75
2023-08-07T14:15:18.368Z,101170.25
2023-08-07T14:17:44.787Z,101171.50
2023-08-07T14:20:11.100Z,101174.50
2023-08-07T14:22:37.395Z,101168.56
2023-08-07T14:25:03.699Z,101164.53
2023-08-07T14:27:30.057Z,101179.69
2023-08-07T14:29:56.296Z,101181.00
2023-08-07T14:32:22.594Z,101192.78
2023-08-07T14:34:48.875Z,101185.69
2023-08-07T14:37:15.292Z,101191.03
2023-08-07T14:39:41.656Z,101189.44
2023-08-07T14:42:09.380Z,101194.53
2023-08-07T14:44:35.815Z,101193.81
2023-08-07T14:47:02.314Z,101191.69
2023-08-07T14:49:28.631Z,101191.50
2023-08-07T14:51:54.943Z,101199.41
2023-08-07T14:54:21.401Z,101201.50
2023-08-07T14:56:47.838Z,101204.25
2023-08-07T14:59:15.200Z,101200.34
2023-08-07T15:01:46.993Z,101192.03
2023-08-07T15:04:13.591Z,101195.78
2023-08-07T15:06:40.118Z,101201.53
2023-08-07T15:09:06.664Z,101195.22
2023-08-07T15:11:33.048Z,101205.75
2023-08-07T15:14:01.931Z,101205.84
2023-08-07T15:16:28.699Z,101199.06
2023-08-07T15:18:55.259Z,101212.09
2023-08-07T15:21:21.977Z,101212.22
2023-08-07T15:23:48.896Z,101211.00
2023-08-07T15:26:15.634Z,101209.16
2023-08-07T15:28:42.401Z,101216.69
2023-08-07T15:31:08.951Z,101216.94
2023-08-07T15:33:35.470Z,101220.47
2023-08-07T15:36:02.046Z,101217.59
2023-08-07T15:38:28.998Z,101218.53
2023-08-07T15:40:55.655Z,101220.31
2023-08-07T15:43:22.523Z,101216.56
2023-08-07T15:45:50.823Z,101217.09
2023-08-07T15:48:17.986Z,101216.94
2023-08-07T15:50:44.416Z,101219.97
2023-08-07T15:53:10.757Z,101231.47
2023-08-07T15:55:37.250Z,101224.44
2023-08-07T15:58:06.652Z,101220.88
2023-08-07T16:00:33.296Z,101227.41
2023-08-07T16:03:02.543Z,101221.91
2023-08-07T16:05:29.277Z,101217.72
2023-08-07T16:07:56.192Z,101219.72
2023-08-07T16:10:22.881Z,101222.75
2023-08-07T16:12:49.487Z,101223.97
2023-08-07T16:15:18.629Z,101214.59
2023-08-07T16:17:45.285Z,101220.84
2023-08-07T16:20:11.717Z,101215.84
2023-08-07T16:22:38.589Z,101225.94
2023-08-07T16:25:05.510Z,101220.25
2023-08-07T16:27:32.348Z,101211.91
2023-08-07T16:29:59.312Z,101218.63
2023-08-07T16:32:28.597Z,101216.94
2023-08-07T16:34:55.452Z,101214.38
2023-08-07T16:37:22.034Z,101214.91
2023-08-07T16:39:48.571Z,101218.81
2023-08-07T16:42:15.168Z,101230.78
2023-08-07T16:44:42.010Z,101231.00
2023-08-07T16:47:08.891Z,101235.06
2023-08-07T16:49:38.224Z,101229.53
2023-08-07T16:52:04.789Z,101233.22
2023-08-07T16:54:31.816Z,101235.84
2023-08-07T16:56:58.946Z,101234.00
2023-08-07T16:59:25.771Z,101241.91
2023-08-07T17:01:52.401Z,101244.59
2023-08-07T17:04:19.039Z,101250.47
2023-08-07T17:06:45.532Z,101248.31
2023-08-07T17:09:12.791Z,101253.16
2023-08-07T17:11:39.314Z,101248.44
2023-08-07T17:14:06.275Z,101256.69
2023-08-07T17:16:32.862Z,101268.28
2023-08-07T17:18:59.716Z,101265.44
2023-08-07T17:21:26.566Z,101265.22
2023-08-07T17:23:53.160Z,101272.22
2023-08-07T17:26:19.903Z,101273.22
2023-08-07T17:28:46.307Z,101284.00
2023-08-07T17:31:12.777Z,101285.38
2023-08-07T17:33:39.408Z,101280.13
2023-08-07T17:36:06.388Z,101282.13
2023-08-07T17:38:32.963Z,101274.41
2023-08-07T17:40:59.755Z,101286.06
2023-08-07T17:43:26.586Z,101275.28
2023-08-07T17:45:53.418Z,101287.56
2023-08-07T17:48:20.506Z,101287.84
2023-08-07T17:50:49.477Z,101286.97
2023-08-07T17:53:17.280Z,101295.53
2023-08-07T17:55:44.100Z,101292.47
2023-08-07T17:58:10.908Z,101299.13
2023-08-07T18:00:37.753Z,101296.97
2023-08-07T18:03:04.677Z,101295.09
2023-08-07T18:05:32.003Z,101297.66
2023-08-07T18:07:58.603Z,101305.03
2023-08-07T18:10:25.545Z,101299.53
2023-08-07T18:13:01.464Z,101306.44
2023-08-07T18:15:28.129Z,101311.44
2023-08-07T18:17:55.131Z,101316.53
2023-08-07T18:20:22.016Z,101319.50
2023-08-07T18:22:49.000Z,101324.19
2023-08-07T18:25:15.469Z,101327.19
2023-08-07T18:27:42.339Z,101331.94
2023-08-07T18:30:08.670Z,101330.91
2023-08-07T18:32:35.232Z,101340.09
2023-08-07T18:35:01.652Z,101339.63
2023-08-07T18:37:28.288Z,101340.09
2023-08-07T18:39:54.663Z,101339.63
2023-08-07T18:42:21.210Z,101346.06
2023-08-07T18:44:47.831Z,101349.16
2023-08-07T18:47:14.949Z,101350.78
2023-08-07T18:49:41.655Z,101354.47
2023-08-07T18:52:12.593Z,101359.47
2023-08-07T18:54:41.955Z,101364.03
2023-08-07T18:57:08.357Z,101365.38
2023-08-07T18:59:34.618Z,101365.31
2023-08-07T19:02:01.344Z,101371.75
2023-08-07T19:04:27.741Z,101376.72
2023-08-07T19:06:54.697Z,101383.16
2023-08-07T19:09:21.095Z,101380.28
2023-08-07T19:11:47.558Z,101394.19
2023-08-07T19:14:13.883Z,101387.78
2023-08-07T19:16:40.653Z,101388.41
2023-08-07T19:19:07.461Z,101401.50
2023-08-07T19:21:33.958Z,101402.88
2023-08-07T19:24:00.505Z,101398.75
2023-08-07T19:26:27.465Z,101402.50
2023-08-07T19:28:53.842Z,101413.41
2023-08-07T19:31:21.928Z,101412.81
2023-08-07T19:33:48.300Z,101409.53
2023-08-07T19:36:19.007Z,101409.53
2023-08-07T19:38:45.498Z,101415.97
2023-08-07T19:41:12.127Z,101414.59
2023-08-07T19:43:38.863Z,101418.63
2023-08-07T19:46:05.661Z,101420.88
2023-08-07T19:48:32.409Z,101432.13
2023-08-07T19:50:58.815Z,101429.00
2023-08-07T19:53:25.795Z,101430.06
2023-08-07T19:55:52.859Z,101431.66
2023-08-07T19:58:19.799Z,101433.81
2023-08-07T20:00:52.715Z,101440.06
2023-08-07T20:03:19.772Z,101444.69
2023-08-07T20:05:46.358Z,101442.41
2023-08-07T20:08:12.996Z,101445.63
2023-08-07T20:10:39.549Z,101452.25
2023-08-07T20:13:05.893Z,101449.19
2023-08-07T20:15:32.941Z,101455.94
2023-08-07T20:17:59.917Z,101451.81
2023-08-07T20:20:32.453Z,101455.53
2023-08-07T20:23:08.184Z,101460.53
2023-08-07T20:25:34.679Z,101469.91
2023-08-07T20:30:27.739Z,101455.16
2023-08-07T20:32:56.990Z,101461.97
2023-08-07T20:35:24.309Z,101462.31
2023-08-07T20:37:53.585Z,101454.44
2023-08-07T20:40:19.931Z,101467.72
2023-08-07T20:42:46.661Z,101461.47
2023-08-07T20:45:13.289Z,101462.31
2023-08-07T20:47:39.902Z,101455.59
2023-08-07T20:50:06.569Z,101468.38
2023-08-07T20:52:37.237Z,101463.25
2023-08-07T20:55:03.839Z,101462.75
2023-08-07T20:57:30.197Z,101461.56
2023-08-07T20:59:56.759Z,101464.00
2023-08-07T21:02:23.204Z,101468.13
2023-08-07T21:04:49.859Z,101464.66
2023-08-07T21:07:16.518Z,101464.97
2023-08-07T21:09:42.853Z,101472.00
2023-08-07T21:12:09.318Z,101475.44
2023-08-07T21:14:36.121Z,101479.34
2023-08-07T21:17:03.008Z,101481.19
2023-08-07T21:19:29.734Z,101476.47
2023-08-07T21:21:56.925Z,101478.59
2023-08-07T21:24:23.682Z,101471.81
2023-08-07T21:26:50.393Z,101476.47
2023-08-07T21:29:16.998Z,101478.28
2023-08-07T21:31:43.577Z,101478.38
2023-08-07T21:34:10.197Z,101479.09
2023-08-07T21:36:36.813Z,101477.25
2023-08-07T21:41:43.605Z,101478.06
2023-08-07T21:44:10.288Z,101471.16
2023-08-07T21:46:36.808Z,101475.28
2023-08-07T21:49:03.525Z,101481.06
2023-08-07T21:51:30.204Z,101483.91
2023-08-07T21:53:56.946Z,101484.31
2023-08-07T21:56:23.340Z,101477.41
2023-08-07T21:58:50.007Z,101479.19
2023-08-07T22:01:25.061Z,101479.28
2023-08-07T22:03:51.579Z,101488.09
2023-08-07T22:06:18.281Z,101477.00
2023-08-07T22:08:46.984Z,101476.91
2023-08-07T22:11:13.530Z,101483.16
2023-08-07T22:13:39.980Z,101478.34
2023-08-07T22:16:06.349Z,101485.16
2023-08-07T22:18:32.760Z,101492.94
2023-08-07T22:20:59.046Z,101494.06
2023-08-07T22:23:25.355Z,101485.75
2023-08-07T22:25:52.811Z,101491.34
2023-08-07T22:28:20.195Z,101499.66
2023-08-07T22:30:46.492Z,101498.19
2023-08-07T22:33:12.854Z,101496.66
2023-08-07T22:35:39.307Z,101497.84
2023-08-07T22:38:05.617Z,101507.69
2023-08-07T22:40:31.898Z,101502.97
2023-08-07T22:42:58.224Z,101517.50
2023-08-07T22:45:24.528Z,101512.88
2023-08-07T22:47:50.974Z,101516.06
2023-08-07T22:50:17.290Z,101513.78
2023-08-07T22:52:43.681Z,101520.28
2023-08-07T22:55:10.022Z,101519.78
2023-08-07T22:57:36.389Z,101520.06
2023-08-07T23:00:02.774Z,101522.78
2023-08-07T23:02:29.275Z,101515.22
2023-08-07T23:04:55.678Z,101523.34
2023-08-07T23:07:21.977Z,101524.28
2023-08-07T23:09:48.186Z,101521.63
2023-08-07T23:12:15.322Z,101520.78
2023-08-07T23:14:42.246Z,101527.09
2023-08-07T23:17:08.535Z,101524.53
2023-08-07T23:19:34.858Z,101536.22
2023-08-07T23:22:01.368Z,101537.06
2023-08-07T23:24:27.834Z,101541.88
2023-08-07T23:26:54.197Z,101531.28
2023-08-07T23:29:20.508Z,101524.88
2023-08-07T23:31:46.890Z,101528.28
2023-08-07T23:34:13.361Z,101528.97
2023-08-07T23:36:39.647Z,101522.69
2023-08-07T23:39:05.950Z,101525.78
2023-08-07T23:41:32.185Z,101527.41
2023-08-07T23:43:58.495Z,101530.06
2023-08-07T23:46:24.777Z,101525.72
2023-08-07T23:48:51.150Z,101532.72
2023-08-07T23:51:17.414Z,101535.44
2023-08-07T23:53:43.741Z,101538.97
2023-08-07T23:56:10.048Z,101537.50
2023-08-07T23:58:36.303Z,101550.91
